createdAt,value
2022-11-08T00:00:42.247Z,13.10
2022-11-08T00:03:10.306Z,13.10
2022-11-08T00:05:56.041Z,13.00
2022-11-08T00:08:42.115Z,13.00
2022-11-08T00:11:28.950Z,13.00
2022-11-08T00:14:00.272Z,12.90
2022-11-08T00:16:29.391Z,12.90
2022-11-08T00:18:57.609Z,12.90
2022-11-08T00:21:25.973Z,12.90
2022-11-08T00:23:54.281Z,12.90
2022-11-08T00:26:23.696Z,12.90
2022-11-08T00:28:51.714Z,12.80
2022-11-08T00:31:19.861Z,12.80
2022-11-08T00:33:47.923Z,12.80
2022-11-08T00:36:15.933Z,12.70
2022-11-08T00:38:44.185Z,12.70
2022-11-08T00:41:12.562Z,12.70
2022-11-08T00:43:42.363Z,12.70
2022-11-08T00:46:10.718Z,12.70
2022-11-08T00:48:38.998Z,12.70
2022-11-08T00:51:10.650Z,12.70
2022-11-08T00:53:38.906Z,12.60
2022-11-08T00:56:11.140Z,12.60
2022-11-08T00:58:39.254Z,12.60
2022-11-08T01:01:14.540Z,12.60
2022-11-08T01:03:43.189Z,12.60
2022-11-08T01:06:13.384Z,12.60
2022-11-08T01:08:42.025Z,12.60
2022-11-08T01:11:14.383Z,12.60
2022-11-08T01:13:43.198Z,12.60
2022-11-08T01:16:15.947Z,12.50
2022-11-08T01:18:44.953Z,12.50
2022-11-08T01:21:14.990Z,12.50
2022-11-08T01:23:45.235Z,12.50
2022-11-08T01:26:16.110Z,12.50
2022-11-08T01:28:44.395Z,12.50
2022-11-08T01:31:16.013Z,12.40
2022-11-08T01:33:50.870Z,12.40
2022-11-08T01:36:22.328Z,12.40
2022-11-08T01:38:51.277Z,12.40
2022-11-08T01:41:21.929Z,12.40
2022-11-08T01:43:51.460Z,12.40
2022-11-08T01:46:45.395Z,12.40
2022-11-08T01:49:39.506Z,12.40
2022-11-08T01:52:18.024Z,12.40
2022-11-08T01:54:58.427Z,12.40
2022-11-08T01:57:34.482Z,12.40
2022-11-08T02:00:08.285Z,12.40
2022-11-08T02:02:40.356Z,12.40
2022-11-08T02:05:24.798Z,12.40
2022-11-08T02:08:02.924Z,12.40
2022-11-08T02:10:36.419Z,12.40
2022-11-08T02:13:13.308Z,12.40
2022-11-08T02:15:43.961Z,12.40
2022-11-08T02:18:16.131Z,12.40
2022-11-08T02:20:58.411Z,12.40
2022-11-08T02:23:30.760Z,12.40
2022-11-08T02:26:00.258Z,12.40
2022-11-08T02:28:28.262Z,12.40
2022-11-08T02:30:56.361Z,12.40
2022-11-08T02:33:24.917Z,12.40
2022-11-08T02:35:57.344Z,12.40
2022-11-08T02:38:27.702Z,12.40
2022-11-08T02:40:57.790Z,12.40
2022-11-08T02:43:27.778Z,12.40
2022-11-08T02:45:55.953Z,12.50
2022-11-08T02:48:24.005Z,12.50
2022-11-08T02:50:52.224Z,12.50
2022-11-08T02:53:20.904Z,12.50
2022-11-08T02:55:49.169Z,12.50
2022-11-08T02:58:17.648Z,12.50
2022-11-08T03:00:47.462Z,12.50
2022-11-08T03:03:15.752Z,12.50
2022-11-08T03:05:43.954Z,12.50
2022-11-08T03:08:12.000Z,12.50
2022-11-08T03:10:40.130Z,12.50
2022-11-08T03:13:08.761Z,12.50
2022-11-08T03:15:37.106Z,12.50
2022-11-08T03:18:07.054Z,12.50
2022-11-08T03:20:35.155Z,12.40
2022-11-08T03:23:06.435Z,12.40
2022-11-08T03:25:35.620Z,12.40
2022-11-08T03:28:04.700Z,12.40
2022-11-08T03:30:33.181Z,12.40
2022-11-08T03:33:01.625Z,12.30
2022-11-08T03:35:31.172Z,12.30
2022-11-08T03:37:59.597Z,12.30
2022-11-08T03:40:28.661Z,12.20
2022-11-08T03:42:58.109Z,12.20
2022-11-08T03:45:26.280Z,12.20
2022-11-08T03:47:54.535Z,12.20
2022-11-08T03:50:22.738Z,12.10
2022-11-08T03:52:54.789Z,12.20
2022-11-08T03:55:25.738Z,12.10
2022-11-08T03:57:55.309Z,12.10
2022-11-08T04:00:27.032Z,12.10
2022-11-08T04:02:56.122Z,12.00
2022-11-08T04:05:24.216Z,12.10
2022-11-08T04:07:53.525Z,12.00
2022-11-08T04:10:21.540Z,12.00
2022-11-08T04:13:07.127Z,12.00
2022-11-08T04:15:35.187Z,12.00
2022-11-08T04:18:21.300Z,12.00
2022-11-08T04:21:07.466Z,11.90
2022-11-08T04:23:39.261Z,11.90
2022-11-08T04:26:11.614Z,11.80
2022-11-08T04:28:42.222Z,11.80
2022-11-08T04:31:13.744Z,11.80
2022-11-08T04:33:42.497Z,11.70
2022-11-08T04:36:13.716Z,11.70
2022-11-08T04:38:43.580Z,11.70
2022-11-08T04:41:14.787Z,11.60
2022-11-08T04:43:43.247Z,11.60
2022-11-08T04:46:14.940Z,11.60
2022-11-08T04:48:44.382Z,11.60
2022-11-08T04:51:15.686Z,11.60
2022-11-08T04:53:46.019Z,11.60
2022-11-08T04:56:16.848Z,11.60
2022-11-08T04:58:48.127Z,11.60
2022-11-08T05:01:18.881Z,11.60
2022-11-08T05:03:49.228Z,11.50
2022-11-08T05:06:20.419Z,11.50
2022-11-08T05:08:50.252Z,11.50
2022-11-08T05:11:21.975Z,11.50
2022-11-08T05:13:51.977Z,11.50
2022-11-08T05:16:22.797Z,11.50
2022-11-08T05:18:51.191Z,11.50
2022-11-08T05:21:39.839Z,11.50
2022-11-08T05:24:12.664Z,11.50
2022-11-08T05:26:44.005Z,11.50
2022-11-08T05:29:14.162Z,11.50
2022-11-08T05:31:42.830Z,11.50
2022-11-08T05:34:11.019Z,11.50
2022-11-08T05:36:39.381Z,11.50
2022-11-08T05:39:08.932Z,11.50
2022-11-08T05:41:36.887Z,11.50
2022-11-08T05:44:04.964Z,11.50
2022-11-08T05:46:32.972Z,11.60
2022-11-08T05:49:01.210Z,11.60
2022-11-08T05:51:29.261Z,11.50
2022-11-08T05:53:57.327Z,11.50
2022-11-08T05:56:26.905Z,11.50
2022-11-08T05:58:55.315Z,11.50
2022-11-08T06:01:23.498Z,11.50
2022-11-08T06:03:51.635Z,11.50
2022-11-08T06:06:21.978Z,11.50
2022-11-08T06:08:51.970Z,11.40
2022-11-08T06:11:23.747Z,11.40
2022-11-08T06:13:54.447Z,11.40
2022-11-08T06:16:24.978Z,11.40
2022-11-08T06:18:53.408Z,11.40
2022-11-08T06:21:22.694Z,11.40
2022-11-08T06:23:53.912Z,11.40
2022-11-08T06:26:22.201Z,11.40
2022-11-08T06:28:50.196Z,11.40
2022-11-08T06:31:19.463Z,11.40
2022-11-08T06:33:47.502Z,11.40
2022-11-08T06:36:15.414Z,11.40
2022-11-08T06:38:43.312Z,11.40
2022-11-08T06:41:20.183Z,11.40
2022-11-08T06:43:48.889Z,11.40
2022-11-08T06:46:17.053Z,11.40
2022-11-08T06:48:46.381Z,11.30
2022-11-08T06:51:14.937Z,11.30
2022-11-08T06:53:43.001Z,11.30
2022-11-08T06:56:11.415Z,11.30
2022-11-08T06:58:39.682Z,11.30
2022-11-08T07:01:12.045Z,11.30
2022-11-08T07:03:40.257Z,11.30
2022-11-08T07:06:10.099Z,11.30
2022-11-08T07:08:38.010Z,11.30
2022-11-08T07:11:06.550Z,11.30
2022-11-08T07:13:34.555Z,11.30
2022-11-08T07:16:03.041Z,11.30
2022-11-08T07:18:31.500Z,11.30
2022-11-08T07:21:01.114Z,11.30
2022-11-08T07:23:30.632Z,11.30
2022-11-08T07:26:02.780Z,11.30
2022-11-08T07:28:31.704Z,11.30
2022-11-08T07:31:02.439Z,11.30
2022-11-08T07:33:31.122Z,11.40
2022-11-08T07:35:59.008Z,11.40
2022-11-08T07:38:27.026Z,11.40
2022-11-08T07:40:59.002Z,11.40
2022-11-08T07:43:28.284Z,11.50
2022-11-08T07:45:58.747Z,11.50
2022-11-08T07:48:28.248Z,11.50
2022-11-08T07:50:56.471Z,11.60
2022-11-08T07:53:24.577Z,11.60
2022-11-08T07:55:53.194Z,11.70
2022-11-08T07:58:22.480Z,11.70
2022-11-08T08:00:50.774Z,11.80
2022-11-08T08:03:19.600Z,11.90
2022-11-08T08:05:59.449Z,12.00
2022-11-08T08:08:29.049Z,12.10
2022-11-08T08:11:00.109Z,12.20
2022-11-08T08:13:29.903Z,12.30
2022-11-08T08:16:00.540Z,12.40
2022-11-08T08:18:28.875Z,12.50
2022-11-08T08:20:57.239Z,12.60
2022-11-08T08:23:25.569Z,12.60
2022-11-08T08:25:54.114Z,12.70
2022-11-08T08:28:22.066Z,12.90
2022-11-08T08:30:51.349Z,13.00
2022-11-08T08:33:28.732Z,13.00
2022-11-08T08:36:02.211Z,13.20
2022-11-08T08:38:31.261Z,13.30
2022-11-08T08:40:59.351Z,13.40
2022-11-08T08:43:28.399Z,13.50
2022-11-08T08:46:00.774Z,13.50
2022-11-08T08:48:28.839Z,13.60
2022-11-08T08:50:57.079Z,13.60
2022-11-08T08:53:25.779Z,13.70
2022-11-08T08:55:53.874Z,13.70
2022-11-08T08:58:23.169Z,13.70
2022-11-08T09:03:40.417Z,13.80
2022-11-08T09:06:09.051Z,13.80
2022-11-08T09:08:37.156Z,13.80
2022-11-08T09:11:05.558Z,13.80
2022-11-08T09:13:34.173Z,13.90
2022-11-08T09:16:03.660Z,13.90
2022-11-08T09:18:32.547Z,13.90
2022-11-08T09:21:04.217Z,14.00
2022-11-08T09:23:32.565Z,14.00
2022-11-08T09:26:02.709Z,14.10
2022-11-08T09:28:32.261Z,14.10
2022-11-08T09:31:09.044Z,14.20
2022-11-08T09:33:38.953Z,14.20
2022-11-08T09:36:13.316Z,14.30
2022-11-08T09:38:41.923Z,14.30
2022-11-08T09:41:39.364Z,14.40
2022-11-08T09:44:22.641Z,14.50
2022-11-08T09:46:54.736Z,14.50
2022-11-08T09:49:29.802Z,14.60
2022-11-08T09:52:01.502Z,14.70
2022-11-08T09:54:37.518Z,14.70
2022-11-08T09:57:08.118Z,14.80
2022-11-08T09:59:46.617Z,14.90
2022-11-08T10:02:20.182Z,15.00
2022-11-08T10:04:58.272Z,15.10
2022-11-08T10:07:38.569Z,15.10
2022-11-08T10:10:55.165Z,15.20
2022-11-08T10:13:37.318Z,15.30
2022-11-08T10:16:22.750Z,15.40
2022-11-08T10:19:13.333Z,15.50
2022-11-08T10:22:03.284Z,15.50
2022-11-08T10:24:40.702Z,15.60
2022-11-08T10:27:33.709Z,15.60
2022-11-08T10:30:07.671Z,15.70
2022-11-08T10:32:37.008Z,15.70
2022-11-08T10:35:18.429Z,15.70
2022-11-08T10:37:49.745Z,15.70
2022-11-08T10:40:34.095Z,15.70
2022-11-08T10:43:09.729Z,15.70
2022-11-08T10:45:38.013Z,15.70
2022-11-08T10:48:07.083Z,15.70
2022-11-08T10:50:45.225Z,15.70
2022-11-08T10:53:23.333Z,15.70
2022-11-08T10:56:00.310Z,15.70
2022-11-08T10:58:37.930Z,15.60
2022-11-08T11:01:15.955Z,15.60
2022-11-08T11:03:44.511Z,15.60
2022-11-08T11:06:27.264Z,15.60
2022-11-08T11:08:59.433Z,15.60
2022-11-08T11:11:38.328Z,15.60
2022-11-08T11:14:16.174Z,15.60
2022-11-08T11:16:56.969Z,15.60
2022-11-08T11:19:27.120Z,15.60
2022-11-08T11:21:59.457Z,15.60
2022-11-08T11:24:27.490Z,15.60
2022-11-08T11:27:07.531Z,15.60
2022-11-08T11:29:37.808Z,15.60
2022-11-08T11:32:26.352Z,15.50
2022-11-08T11:34:58.775Z,15.50
2022-11-08T11:37:37.062Z,15.50
2022-11-08T11:40:17.326Z,15.50
2022-11-08T11:43:02.216Z,15.50
2022-11-08T11:45:37.691Z,15.50
2022-11-08T11:48:17.273Z,15.50
2022-11-08T11:50:50.876Z,15.40
2022-11-08T11:53:23.570Z,15.40
2022-11-08T11:56:32.110Z,15.40
2022-11-08T11:59:25.718Z,15.40
2022-11-08T12:02:47.283Z,15.40
2022-11-08T12:05:33.660Z,15.40
2022-11-08T12:08:21.241Z,15.40
2022-11-08T12:11:15.977Z,15.40
2022-11-08T12:14:05.819Z,15.40
2022-11-08T12:16:46.532Z,15.50
2022-11-08T12:19:41.356Z,15.50
2022-11-08T12:22:43.294Z,15.50
2022-11-08T12:25:21.509Z,15.50
2022-11-08T12:27:54.693Z,15.60
2022-11-08T12:30:32.784Z,15.50
2022-11-08T12:33:27.664Z,15.60
2022-11-08T12:36:15.759Z,15.60
2022-11-08T12:39:08.527Z,15.60
2022-11-08T12:41:51.895Z,15.70
2022-11-08T12:44:50.903Z,15.70
2022-11-08T12:47:35.500Z,15.70
2022-11-08T12:50:23.540Z,15.70
2022-11-08T12:53:22.904Z,15.80
2022-11-08T12:55:54.178Z,15.80
2022-11-08T12:58:35.152Z,15.80
2022-11-08T13:01:11.075Z,15.80
2022-11-08T13:04:11.716Z,15.80
2022-11-08T13:06:51.273Z,15.80
2022-11-08T13:09:34.817Z,15.90
2022-11-08T13:12:17.289Z,15.80
2022-11-08T13:14:45.525Z,15.80
2022-11-08T13:17:22.908Z,15.80
2022-11-08T13:20:03.450Z,15.80
2022-11-08T13:23:07.633Z,15.80
2022-11-08T13:25:41.923Z,15.80
2022-11-08T13:28:44.934Z,15.80
2022-11-08T13:31:31.073Z,15.80
2022-11-08T13:34:27.093Z,15.80
2022-11-08T13:37:14.428Z,15.80
2022-11-08T13:40:10.002Z,15.80
2022-11-08T13:43:14.664Z,15.80
2022-11-08T13:45:44.023Z,15.80
2022-11-08T13:48:36.810Z,15.80
2022-11-08T13:51:29.693Z,15.80
2022-11-08T13:54:00.962Z,15.80
2022-11-08T13:56:52.425Z,15.80
2022-11-08T14:00:02.437Z,15.80
2022-11-08T14:02:38.605Z,15.80
2022-11-08T14:05:46.056Z,15.80
2022-11-08T14:08:25.971Z,15.80
2022-11-08T14:11:40.148Z,15.80
2022-11-08T14:14:38.232Z,15.80
2022-11-08T14:17:39.064Z,15.80
2022-11-08T14:20:27.992Z,15.80
2022-11-08T14:22:57.882Z,15.80
2022-11-08T14:25:31.122Z,15.80
2022-11-08T14:27:59.454Z,15.80
2022-11-08T14:30:29.299Z,15.70
2022-11-08T14:33:15.231Z,15.70
2022-11-08T14:35:43.794Z,15.70
2022-11-08T14:38:15.742Z,15.70
2022-11-08T14:40:50.717Z,15.70
2022-11-08T14:43:19.880Z,15.70
2022-11-08T14:45:50.226Z,15.70
2022-11-08T14:48:25.391Z,15.60
2022-11-08T14:51:00.352Z,15.60
2022-11-08T14:53:31.441Z,15.60
2022-11-08T14:56:19.561Z,15.60
2022-11-08T14:58:49.837Z,15.60
2022-11-08T15:01:23.965Z,15.60
2022-11-08T15:03:56.927Z,15.60
2022-11-08T15:06:32.435Z,15.60
2022-11-08T15:09:01.984Z,15.60
2022-11-08T15:11:33.205Z,15.60
2022-11-08T15:14:05.085Z,15.60
2022-11-08T15:16:43.903Z,15.50
2022-11-08T15:19:39.971Z,15.50
2022-11-08T15:22:25.535Z,15.50
2022-11-08T15:25:03.028Z,15.50
2022-11-08T15:27:31.259Z,15.50
2022-11-08T15:30:08.984Z,15.50
2022-11-08T15:32:40.893Z,15.50
2022-11-08T15:35:24.493Z,15.40
2022-11-08T15:37:59.456Z,15.50
2022-11-08T15:40:30.956Z,15.50
2022-11-08T15:43:00.850Z,15.40
2022-11-08T15:45:32.975Z,15.40
2022-11-08T15:48:20.600Z,15.40
2022-11-08T15:50:49.055Z,15.40
2022-11-08T15:53:17.580Z,15.40
2022-11-08T15:55:50.868Z,15.40
2022-11-08T15:58:28.014Z,15.40
2022-11-08T16:00:58.480Z,15.30
2022-11-08T16:03:28.180Z,15.30
2022-11-08T16:05:56.396Z,15.30
2022-11-08T16:08:26.589Z,15.30
2022-11-08T16:11:00.823Z,15.30
2022-11-08T16:13:34.978Z,15.30
2022-11-08T16:16:05.554Z,15.30
2022-11-08T16:18:35.214Z,15.30
2022-11-08T16:21:03.745Z,15.30
2022-11-08T16:23:31.862Z,15.30
2022-11-08T16:26:01.008Z,15.30
2022-11-08T16:28:34.448Z,15.30
2022-11-08T16:31:05.773Z,15.30
2022-11-08T16:33:36.604Z,15.30
2022-11-08T16:36:18.968Z,15.30
2022-11-08T16:38:54.033Z,15.30
2022-11-08T16:41:23.410Z,15.30
2022-11-08T16:43:52.315Z,15.30
2022-11-08T16:46:22.606Z,15.30
2022-11-08T16:48:57.516Z,15.20
2022-11-08T16:51:26.257Z,15.30
2022-11-08T16:53:54.766Z,15.20
2022-11-08T16:56:22.750Z,15.30
2022-11-08T16:58:51.524Z,15.30
2022-11-08T17:01:23.779Z,15.30
2022-11-08T17:03:53.187Z,15.30
2022-11-08T17:06:21.242Z,15.30
2022-11-08T17:08:49.838Z,15.20
2022-11-08T17:11:20.873Z,15.20
2022-11-08T17:13:49.437Z,15.20
2022-11-08T17:16:18.827Z,15.20
2022-11-08T17:18:52.177Z,15.20
2022-11-08T17:21:44.751Z,15.20
2022-11-08T17:24:14.715Z,15.20
2022-11-08T17:26:47.965Z,15.20
2022-11-08T17:29:15.943Z,15.20
2022-11-08T17:31:43.991Z,15.20
2022-11-08T17:34:11.912Z,15.20
2022-11-08T17:36:41.407Z,15.20
2022-11-08T17:39:09.792Z,15.20
2022-11-08T17:41:37.837Z,15.20
2022-11-08T17:44:06.254Z,15.20
2022-11-08T17:46:34.235Z,15.20
2022-11-08T17:49:02.285Z,15.10
2022-11-08T17:51:30.264Z,15.10
2022-11-08T17:53:59.613Z,15.10
2022-11-08T17:56:27.582Z,15.10
2022-11-08T17:58:55.756Z,15.10
2022-11-08T18:01:23.913Z,15.00
2022-11-08T18:03:51.997Z,15.10
2022-11-08T18:06:20.254Z,15.10
2022-11-08T18:08:48.277Z,15.10
2022-11-08T18:11:17.644Z,15.10
2022-11-08T18:13:45.613Z,15.10
2022-11-08T18:16:16.046Z,15.10
2022-11-08T18:18:45.544Z,15.10
2022-11-08T18:21:14.029Z,15.10
2022-11-08T18:23:43.641Z,15.10
2022-11-08T18:26:13.101Z,15.10
2022-11-08T18:28:44.320Z,15.10
2022-11-08T18:31:14.914Z,15.10
2022-11-08T18:33:44.170Z,15.10
2022-11-08T18:36:15.031Z,15.10
2022-11-08T18:38:45.567Z,15.00
2022-11-08T18:41:15.801Z,15.10
2022-11-08T18:43:45.887Z,15.10
2022-11-08T18:46:16.970Z,15.10
2022-11-08T18:48:45.460Z,15.00
2022-11-08T18:51:17.287Z,15.10
2022-11-08T18:53:45.556Z,15.00
2022-11-08T18:56:14.702Z,15.10
2022-11-08T18:58:45.602Z,15.10
2022-11-08T19:01:14.908Z,15.10
2022-11-08T19:03:43.199Z,15.10
2022-11-08T19:06:11.412Z,15.10
2022-11-08T19:08:39.493Z,15.10
2022-11-08T19:11:10.720Z,15.10
2022-11-08T19:13:41.052Z,15.10
2022-11-08T19:16:14.151Z,15.10
2022-11-08T19:18:43.569Z,15.10
2022-11-08T19:21:15.548Z,15.10
2022-11-08T19:23:45.691Z,15.10
2022-11-08T19:26:17.354Z,15.10
2022-11-08T19:28:47.094Z,15.10
2022-11-08T19:31:19.574Z,15.10
2022-11-08T19:33:49.591Z,15.10
2022-11-08T19:36:23.387Z,15.10
2022-11-08T19:38:52.187Z,15.10
2022-11-08T19:41:22.722Z,15.10
2022-11-08T19:43:51.763Z,15.10
2022-11-08T19:46:24.348Z,15.10
2022-11-08T19:48:53.159Z,15.10
2022-11-08T19:51:24.565Z,15.10
2022-11-08T19:53:57.166Z,15.10
2022-11-08T19:56:43.387Z,15.10
2022-11-08T19:59:13.846Z,15.10
2022-11-08T20:01:43.328Z,15.10
2022-11-08T20:04:12.827Z,15.10
2022-11-08T20:06:41.559Z,15.10
2022-11-08T20:09:10.342Z,15.10
2022-11-08T20:11:41.140Z,15.10
2022-11-08T20:14:12.403Z,15.10
2022-11-08T20:16:47.823Z,15.10
2022-11-08T20:19:18.097Z,15.10
2022-11-08T20:21:46.661Z,15.10
2022-11-08T20:24:16.326Z,15.10
2022-11-08T20:26:45.503Z,15.10
2022-11-08T20:29:14.649Z,15.10
2022-11-08T20:31:44.174Z,15.10
2022-11-08T20:34:13.279Z,15.00
2022-11-08T20:36:43.769Z,15.10
2022-11-08T20:39:13.816Z,15.10
2022-11-08T20:41:42.096Z,15.00
2022-11-08T20:44:11.552Z,15.10
2022-11-08T20:46:40.240Z,15.10
2022-11-08T20:49:10.142Z,15.00
2022-11-08T20:51:38.485Z,15.10
2022-11-08T20:54:07.257Z,15.10
2022-11-08T20:56:35.347Z,15.00
2022-11-08T20:59:03.946Z,15.00
2022-11-08T21:01:32.639Z,15.10
2022-11-08T21:04:01.200Z,15.10
2022-11-08T21:06:36.055Z,15.10
2022-11-08T21:11:54.605Z,15.10
2022-11-08T21:14:23.525Z,15.00
2022-11-08T21:17:20.116Z,15.10
2022-11-08T21:19:40.529Z,15.00
2022-11-08T21:22:15.909Z,15.00
2022-11-08T21:24:45.799Z,15.00
2022-11-08T21:27:15.180Z,15.00
2022-11-08T21:29:43.436Z,15.00
2022-11-08T21:32:11.474Z,15.00
2022-11-08T21:34:45.183Z,15.00
2022-11-08T21:37:15.373Z,15.00
2022-11-08T21:39:43.618Z,15.00
2022-11-08T21:42:11.664Z,14.90
2022-11-08T21:44:39.702Z,14.90
2022-11-08T21:47:07.862Z,14.90
2022-11-08T21:49:35.885Z,14.90
2022-11-08T21:52:03.989Z,14.90
2022-11-08T21:54:33.421Z,14.90
2022-11-08T21:57:01.513Z,14.90
2022-11-08T21:59:29.494Z,14.90
2022-11-08T22:01:58.035Z,14.90
2022-11-08T22:04:26.042Z,14.90
2022-11-08T22:06:54.332Z,14.90
2022-11-08T22:09:22.450Z,14.90
2022-11-08T22:11:51.904Z,14.90
2022-11-08T22:14:20.005Z,14.90
2022-11-08T22:16:48.472Z,14.90
2022-11-08T22:19:16.498Z,15.00
2022-11-08T22:21:46.056Z,15.00
2022-11-08T22:24:18.100Z,14.90
2022-11-08T22:26:46.759Z,15.00
2022-11-08T22:29:17.470Z,15.00
2022-11-08T22:31:45.961Z,15.00
2022-11-08T22:34:14.241Z,15.00
2022-11-08T22:36:45.566Z,15.00
2022-11-08T22:39:15.209Z,15.00
2022-11-08T22:41:43.449Z,14.90
2022-11-08T22:44:12.839Z,15.00
2022-11-08T22:46:43.627Z,15.00
2022-11-08T22:49:12.814Z,15.00
2022-11-08T22:51:42.249Z,15.00
2022-11-08T22:54:10.981Z,15.00
2022-11-08T22:56:40.120Z,14.90
2022-11-08T22:59:08.651Z,15.00
2022-11-08T23:01:37.089Z,15.00
2022-11-08T23:04:06.825Z,14.90
2022-11-08T23:06:34.901Z,15.00
2022-11-08T23:09:03.011Z,15.00
2022-11-08T23:11:48.733Z,15.00
2022-11-08T23:14:37.545Z,15.00
2022-11-08T23:17:08.384Z,15.00
2022-11-08T23:19:55.200Z,15.00
2022-11-08T23:22:40.922Z,15.00
2022-11-08T23:25:09.689Z,15.00
2022-11-08T23:27:55.423Z,15.00
2022-11-08T23:30:40.928Z,15.00
2022-11-08T23:33:09.011Z,15.00
2022-11-08T23:35:58.396Z,15.00
2022-11-08T23:38:26.425Z,15.00
2022-11-08T23:41:11.965Z,15.00
2022-11-08T23:43:57.816Z,14.90
2022-11-08T23:46:25.826Z,14.90
2022-11-08T23:48:53.821Z,15.00
2022-11-08T23:51:23.277Z,15.00
2022-11-08T23:53:51.326Z,15.00
2022-11-08T23:56:23.326Z,15.00
2022-11-08T23:58:52.077Z,15.00
